createdAt,value
2022-10-21T00:01:05.549Z,13.70
2022-10-21T00:06:14.699Z,13.80
2022-10-21T00:11:17.626Z,14.10
2022-10-21T00:16:20.863Z,13.80
2022-10-21T00:21:23.849Z,13.80
2022-10-21T00:26:26.731Z,14.00
2022-10-21T00:31:30.648Z,13.30
2022-10-21T00:36:33.842Z,14.10
2022-10-21T00:41:36.771Z,14.90
2022-10-21T00:47:01.118Z,16.00
2022-10-21T00:52:08.770Z,15.40
2022-10-21T00:57:11.888Z,14.80
2022-10-21T01:02:14.998Z,15.40
2022-10-21T01:07:18.342Z,14.70
2022-10-21T01:12:59.775Z,14.50
2022-10-21T01:18:24.686Z,14.60
2022-10-21T01:23:47.054Z,14.80
2022-10-21T01:28:58.812Z,14.70
2022-10-21T01:34:26.212Z,14.00
2022-10-21T01:39:35.593Z,14.40
2022-10-21T01:44:43.130Z,15.10
2022-10-21T01:50:00.428Z,14.40
2022-10-21T01:55:08.811Z,14.30
2022-10-21T02:00:12.687Z,14.10
2022-10-21T02:05:23.182Z,7.60
2022-10-21T02:10:30.148Z,13.20
2022-10-21T02:15:34.455Z,15.00
2022-10-21T02:20:42.500Z,13.90
2022-10-21T02:25:48.910Z,14.10
2022-10-21T02:31:07.184Z,16.30
2022-10-21T02:36:12.696Z,16.10
2022-10-21T02:41:21.405Z,16.00
2022-10-21T02:46:25.123Z,17.00
2022-10-21T02:51:28.162Z,15.30
2022-10-21T02:56:31.264Z,15.40
2022-10-21T03:01:34.224Z,15.50
2022-10-21T03:06:37.106Z,15.40
2022-10-21T03:11:39.977Z,43.80
2022-10-21T03:16:42.880Z,16.40
2022-10-21T03:21:45.790Z,15.30
2022-10-21T03:26:48.733Z,15.40
2022-10-21T03:31:51.656Z,14.90
2022-10-21T03:36:56.028Z,15.50
2022-10-21T03:41:58.934Z,15.00
2022-10-21T03:47:01.886Z,15.20
2022-10-21T03:52:04.850Z,13.60
2022-10-21T03:57:08.078Z,14.60
2022-10-21T04:02:11.023Z,14.50
2022-10-21T04:07:14.178Z,15.30
2022-10-21T04:12:17.066Z,15.90
2022-10-21T04:17:20.091Z,17.00
2022-10-21T04:22:23.288Z,16.80
2022-10-21T04:27:26.148Z,15.80
2022-10-21T04:32:29.067Z,16.60
2022-10-21T04:37:32.198Z,15.60
2022-10-21T04:42:35.131Z,15.70
2022-10-21T04:47:38.324Z,15.60
2022-10-21T04:52:41.510Z,15.50
2022-10-21T04:57:44.652Z,14.70
2022-10-21T05:02:47.859Z,15.70
2022-10-21T05:07:50.779Z,15.70
2022-10-21T05:12:53.781Z,14.50
2022-10-21T05:17:56.749Z,16.30
2022-10-21T05:22:59.774Z,16.70
2022-10-21T05:28:02.757Z,15.90
2022-10-21T05:33:06.949Z,15.10
2022-10-21T05:38:10.047Z,16.00
2022-10-21T05:43:12.981Z,17.20
2022-10-21T05:48:18.442Z,16.10
2022-10-21T05:53:24.027Z,17.90
2022-10-21T05:58:28.155Z,16.40
2022-10-21T06:03:33.128Z,15.90
2022-10-21T06:08:39.308Z,16.00
2022-10-21T06:13:42.865Z,15.10
2022-10-21T06:18:45.885Z,16.30
2022-10-21T06:23:53.794Z,15.80
2022-10-21T06:28:57.898Z,17.00
2022-10-21T06:34:00.865Z,15.00
2022-10-21T06:39:05.752Z,14.20
2022-10-21T06:44:08.685Z,14.50
2022-10-21T06:49:11.667Z,14.20
2022-10-21T06:54:14.647Z,14.50
2022-10-21T06:59:17.701Z,15.00
2022-10-21T07:04:20.579Z,15.60
2022-10-21T07:09:23.525Z,15.20
2022-10-21T07:14:26.728Z,14.90
2022-10-21T07:19:29.854Z,14.80
2022-10-21T07:24:33.232Z,14.80
2022-10-21T07:29:36.146Z,14.60
2022-10-21T07:34:39.060Z,14.00
2022-10-21T07:39:42.093Z,14.20
2022-10-21T07:44:45.055Z,51.80
2022-10-21T07:49:47.889Z,20.20
2022-10-21T07:54:50.882Z,17.00
2022-10-21T07:59:56.335Z,15.70
2022-10-21T08:04:59.384Z,16.10
2022-10-21T08:10:02.823Z,16.30
2022-10-21T08:15:06.150Z,16.90
2022-10-21T08:20:09.683Z,16.20
2022-10-21T08:25:16.769Z,17.60
2022-10-21T08:30:19.655Z,17.20
2022-10-21T08:35:22.591Z,17.70
2022-10-21T08:40:26.178Z,17.60
2022-10-21T08:45:38.251Z,17.70
2022-10-21T08:50:47.339Z,16.60
2022-10-21T08:55:52.736Z,16.80
2022-10-21T09:01:10.879Z,16.10
2022-10-21T09:06:19.696Z,16.80
2022-10-21T09:11:34.558Z,17.90
2022-10-21T09:16:58.376Z,16.00
2022-10-21T09:22:29.996Z,18.30
2022-10-21T09:27:51.520Z,19.30
2022-10-21T09:32:59.651Z,19.30
2022-10-21T09:38:14.190Z,20.90
2022-10-21T09:43:20.995Z,21.20
2022-10-21T09:48:41.719Z,24.20
2022-10-21T09:53:57.459Z,23.90
2022-10-21T09:59:07.643Z,28.40
2022-10-21T10:04:14.968Z,29.00
2022-10-21T10:09:34.097Z,28.90
2022-10-21T10:14:39.733Z,27.90
2022-10-21T10:19:42.683Z,23.50
2022-10-21T10:24:45.671Z,18.30
2022-10-21T10:30:00.847Z,16.60
2022-10-21T10:35:14.945Z,16.10
2022-10-21T10:40:28.867Z,14.80
2022-10-21T10:45:32.306Z,14.60
2022-10-21T10:50:38.033Z,14.70
2022-10-21T10:55:45.584Z,14.90
2022-10-21T11:00:52.048Z,16.00
2022-10-21T11:06:08.399Z,14.60
2022-10-21T11:11:20.028Z,14.80
2022-10-21T11:16:50.574Z,15.30
2022-10-21T11:22:24.163Z,13.80
2022-10-21T11:28:02.681Z,15.50
2022-10-21T11:33:23.641Z,10.80
2022-10-21T11:38:41.396Z,10.30
2022-10-21T11:44:05.687Z,9.80
2022-10-21T11:49:40.800Z,8.80
2022-10-21T11:55:08.350Z,8.60
2022-10-21T12:00:26.534Z,8.90
2022-10-21T12:05:47.102Z,9.00
2022-10-21T12:10:55.700Z,7.30
2022-10-21T12:16:02.455Z,7.60
2022-10-21T12:21:07.235Z,7.70
2022-10-21T12:26:18.022Z,7.70
2022-10-21T12:31:38.275Z,7.40
2022-10-21T12:36:41.351Z,7.60
2022-10-21T12:41:47.301Z,8.30
2022-10-21T12:46:56.573Z,7.50
2022-10-21T12:52:22.734Z,8.20
2022-10-21T13:02:31.383Z,7.00
2022-10-21T13:07:36.175Z,7.90
2022-10-21T13:12:39.411Z,6.90
2022-10-21T13:17:56.294Z,6.90
2022-10-21T13:23:31.792Z,6.70
2022-10-21T13:28:34.898Z,6.80
2022-10-21T13:33:39.218Z,6.50
2022-10-21T13:38:51.313Z,7.00
2022-10-21T13:43:55.852Z,7.00
2022-10-21T13:49:01.987Z,6.50
2022-10-21T13:54:16.197Z,6.50
2022-10-21T13:59:30.054Z,5.80
2022-10-21T14:04:40.215Z,6.00
2022-10-21T14:09:46.632Z,5.60
2022-10-21T14:14:50.159Z,4.80
2022-10-21T14:20:07.813Z,4.30
2022-10-21T14:25:16.118Z,4.20
2022-10-21T14:30:25.821Z,4.50
2022-10-21T14:35:30.459Z,5.00
2022-10-21T14:40:37.780Z,5.00
2022-10-21T14:45:53.956Z,6.20
2022-10-21T14:51:11.247Z,6.50
2022-10-21T14:56:22.373Z,6.80
2022-10-21T15:01:26.029Z,6.60
2022-10-21T15:06:32.791Z,6.60
2022-10-21T15:11:38.333Z,6.30
2022-10-21T15:16:52.145Z,6.40
2022-10-21T15:22:00.979Z,6.20
2022-10-21T15:27:05.456Z,6.30
2022-10-21T15:32:12.333Z,6.10
2022-10-21T15:37:15.334Z,5.50
2022-10-21T15:42:19.387Z,7.00
2022-10-21T15:47:24.940Z,7.10
2022-10-21T15:52:27.811Z,8.00
2022-10-21T15:57:30.715Z,9.20
2022-10-21T16:02:39.496Z,9.40
2022-10-21T16:07:43.210Z,9.10
2022-10-21T16:12:46.316Z,9.20
2022-10-21T16:17:54.248Z,10.40
2022-10-21T16:23:02.266Z,9.70
2022-10-21T16:28:06.528Z,9.50
2022-10-21T16:33:11.334Z,10.30
2022-10-21T16:38:14.549Z,10.20
2022-10-21T16:43:17.649Z,9.50
2022-10-21T16:48:20.759Z,10.70
2022-10-21T16:53:24.015Z,10.80
2022-10-21T16:58:27.021Z,11.50
2022-10-21T17:03:30.273Z,9.50
2022-10-21T17:08:33.188Z,10.20
2022-10-21T17:13:36.184Z,11.80
2022-10-21T17:18:39.998Z,13.20
2022-10-21T17:23:42.916Z,13.60
2022-10-21T17:28:45.940Z,13.60
2022-10-21T17:33:50.910Z,14.70
2022-10-21T17:38:54.048Z,15.80
2022-10-21T17:43:57.304Z,15.90
2022-10-21T17:49:00.253Z,17.30
2022-10-21T17:54:03.643Z,15.80
2022-10-21T17:59:06.676Z,16.70
2022-10-21T18:08:45.883Z,20.10
2022-10-21T18:13:53.450Z,17.40
2022-10-21T18:19:01.801Z,17.20
2022-10-21T18:24:10.030Z,17.30
2022-10-21T18:29:16.475Z,16.70
2022-10-21T18:34:19.497Z,15.30
2022-10-21T18:39:23.175Z,49.40
2022-10-21T18:44:27.065Z,14.30
2022-10-21T18:49:29.997Z,12.30
2022-10-21T18:54:33.229Z,12.20
2022-10-21T18:59:36.545Z,11.20
2022-10-21T19:04:39.487Z,11.50
2022-10-21T19:09:42.568Z,10.60
2022-10-21T19:14:45.690Z,11.20
2022-10-21T19:19:50.196Z,10.50
2022-10-21T19:24:53.250Z,10.70
2022-10-21T19:29:56.135Z,11.30
2022-10-21T19:34:59.106Z,11.50
2022-10-21T19:40:02.264Z,11.40
2022-10-21T19:45:05.963Z,13.30
2022-10-21T19:50:09.229Z,13.50
2022-10-21T19:55:12.531Z,12.90
2022-10-21T20:00:15.596Z,13.30
2022-10-21T20:05:18.767Z,12.70
2022-10-21T20:10:23.764Z,12.60
2022-10-21T20:15:27.013Z,12.40
2022-10-21T20:20:29.955Z,13.10
2022-10-21T20:25:33.033Z,13.70
2022-10-21T20:30:36.143Z,14.30
2022-10-21T20:35:42.787Z,14.10
2022-10-21T20:40:55.162Z,15.10
2022-10-21T20:46:02.795Z,14.30
2022-10-21T20:51:08.515Z,14.70
2022-10-21T20:56:11.642Z,14.40
2022-10-21T21:01:27.769Z,15.10
2022-10-21T21:06:35.182Z,25.10
2022-10-21T21:11:38.494Z,14.70
2022-10-21T21:16:41.473Z,13.80
2022-10-21T21:21:44.412Z,13.30
2022-10-21T21:26:47.536Z,18.70
2022-10-21T21:31:50.429Z,14.60
2022-10-21T21:36:53.326Z,13.70
2022-10-21T21:41:56.620Z,14.90
2022-10-21T21:46:59.748Z,14.50
2022-10-21T21:52:02.658Z,14.60
2022-10-21T21:57:35.596Z,15.40
2022-10-21T22:02:28.644Z,14.60
2022-10-21T22:07:33.149Z,15.40
2022-10-21T22:12:36.148Z,15.70
2022-10-21T22:17:39.963Z,15.70
2022-10-21T22:22:43.336Z,13.60
2022-10-21T22:27:46.342Z,15.70
2022-10-21T22:32:49.845Z,14.70
2022-10-21T22:37:52.847Z,17.00
2022-10-21T22:42:55.916Z,19.10
2022-10-21T22:47:59.223Z,20.00
2022-10-21T22:53:03.179Z,21.00
2022-10-21T22:58:06.973Z,21.90
2022-10-21T23:03:10.004Z,23.50
2022-10-21T23:08:13.201Z,26.10
2022-10-21T23:13:16.600Z,26.70
2022-10-21T23:18:19.544Z,26.50
2022-10-21T23:23:23.196Z,27.40
2022-10-21T23:28:26.324Z,28.10
2022-10-21T23:33:29.834Z,27.80
2022-10-21T23:38:33.216Z,26.30
2022-10-21T23:43:36.239Z,26.30
2022-10-21T23:48:39.525Z,25.90
2022-10-21T23:53:42.639Z,26.50
2022-10-21T23:58:45.787Z,26.00
